sensor_id;sensor_type;location;lat;lon;timestamp;pressure;altitude;pressure_sealevel;temperature;humidity
12624;BME280;6377;42.836;23.998;2023-12-14T00:02:12;94565.72;;;13.01;61.24
12624;BME280;6377;42.836;23.998;2023-12-14T00:04:40;94568.38;;;13.01;62.70
12624;BME280;6377;42.836;23.998;2023-12-14T00:07:08;94567.94;;;13.04;61.70
12624;BME280;6377;42.836;23.998;2023-12-14T00:09:36;94552.47;;;13.01;61.99
12624;BME280;6377;42.836;23.998;2023-12-14T00:12:03;94565.69;;;12.83;62.98
12624;BME280;6377;42.836;23.998;2023-12-14T00:14:32;94564.59;;;12.72;63.89
12624;BME280;6377;42.836;23.998;2023-12-14T00:16:59;94565.69;;;12.65;65.09
12624;BME280;6377;42.836;23.998;2023-12-14T00:19:26;94512.66;;;12.40;64.79
12624;BME280;6377;42.836;23.998;2023-12-14T00:21:54;94555.19;;;12.52;65.34
12624;BME280;6377;42.836;23.998;2023-12-14T00:24:21;94557.88;;;12.45;66.88
12624;BME280;6377;42.836;23.998;2023-12-14T00:26:48;94530.09;;;12.48;65.07
12624;BME280;6377;42.836;23.998;2023-12-14T00:29:15;94518.72;;;12.22;63.62
12624;BME280;6377;42.836;23.998;2023-12-14T00:31:44;94529.56;;;12.39;63.54
12624;BME280;6377;42.836;23.998;2023-12-14T00:34:11;94564.34;;;12.56;63.59
12624;BME280;6377;42.836;23.998;2023-12-14T00:36:38;94561.72;;;12.49;63.40
12624;BME280;6377;42.836;23.998;2023-12-14T00:39:05;94553.72;;;12.56;62.49
12624;BME280;6377;42.836;23.998;2023-12-14T00:41:32;94570.03;;;12.59;63.48
12624;BME280;6377;42.836;23.998;2023-12-14T00:44:00;94559.19;;;12.61;62.91
12624;BME280;6377;42.836;23.998;2023-12-14T00:46:27;94554.34;;;12.51;64.37
12624;BME280;6377;42.836;23.998;2023-12-14T00:48:55;94555.03;;;12.47;64.80
12624;BME280;6377;42.836;23.998;2023-12-14T00:51:22;94560.47;;;12.52;63.68
12624;BME280;6377;42.836;23.998;2023-12-14T00:53:50;94565.34;;;12.55;63.46
12624;BME280;6377;42.836;23.998;2023-12-14T00:56:17;94575.16;;;12.54;63.89
12624;BME280;6377;42.836;23.998;2023-12-14T00:58:44;94560.88;;;12.55;63.73
12624;BME280;6377;42.836;23.998;2023-12-14T01:01:11;94562.69;;;12.30;64.47
12624;BME280;6377;42.836;23.998;2023-12-14T01:03:38;94559.16;;;12.36;63.87
12624;BME280;6377;42.836;23.998;2023-12-14T01:06:07;94553.22;;;12.41;63.95
12624;BME280;6377;42.836;23.998;2023-12-14T01:08:34;94555.34;;;12.32;65.26
12624;BME280;6377;42.836;23.998;2023-12-14T01:11:02;94551.88;;;12.31;65.26
12624;BME280;6377;42.836;23.998;2023-12-14T01:13:29;94553.56;;;12.26;64.43
12624;BME280;6377;42.836;23.998;2023-12-14T01:15:56;94535.19;;;12.24;66.25
12624;BME280;6377;42.836;23.998;2023-12-14T01:18:23;94548.22;;;12.01;68.15
12624;BME280;6377;42.836;23.998;2023-12-14T01:20:50;94537.19;;;12.04;68.24
12624;BME280;6377;42.836;23.998;2023-12-14T01:23:19;94542.31;;;11.99;69.01
12624;BME280;6377;42.836;23.998;2023-12-14T01:25:46;94538.03;;;11.98;67.80
12624;BME280;6377;42.836;23.998;2023-12-14T01:28:13;94539.09;;;11.97;68.18
12624;BME280;6377;42.836;23.998;2023-12-14T01:30:41;94541.38;;;11.87;68.95
12624;BME280;6377;42.836;23.998;2023-12-14T01:33:08;94539.28;;;11.96;69.54
12624;BME280;6377;42.836;23.998;2023-12-14T01:35:35;94546.28;;;11.84;70.44
12624;BME280;6377;42.836;23.998;2023-12-14T01:38:02;94551.16;;;11.87;71.11
12624;BME280;6377;42.836;23.998;2023-12-14T01:40:31;94549.00;;;11.77;72.57
12624;BME280;6377;42.836;23.998;2023-12-14T01:43:06;94516.56;;;11.44;73.16
12624;BME280;6377;42.836;23.998;2023-12-14T01:45:34;94546.59;;;11.62;73.85
12624;BME280;6377;42.836;23.998;2023-12-14T01:48:01;94519.06;;;11.25;75.67
12624;BME280;6377;42.836;23.998;2023-12-14T01:50:29;94542.66;;;11.34;76.48
12624;BME280;6377;42.836;23.998;2023-12-14T01:52:56;94528.00;;;11.31;76.82
12624;BME280;6377;42.836;23.998;2023-12-14T01:55:23;94534.13;;;11.32;77.48
12624;BME280;6377;42.836;23.998;2023-12-14T01:57:52;94531.72;;;11.23;77.93
12624;BME280;6377;42.836;23.998;2023-12-14T02:00:39;94528.44;;;11.21;78.03
12624;BME280;6377;42.836;23.998;2023-12-14T02:03:08;94512.81;;;11.13;79.04
12624;BME280;6377;42.836;23.998;2023-12-14T02:05:36;94474.78;;;11.01;78.34
12624;BME280;6377;42.836;23.998;2023-12-14T02:08:04;94510.97;;;11.14;78.71
12624;BME280;6377;42.836;23.998;2023-12-14T02:10:31;94498.81;;;11.06;77.70
12624;BME280;6377;42.836;23.998;2023-12-14T02:13:01;94463.91;;;10.78;78.12
12624;BME280;6377;42.836;23.998;2023-12-14T02:15:28;94495.78;;;10.96;80.33
12624;BME280;6377;42.836;23.998;2023-12-14T02:17:55;94505.72;;;11.01;80.31
12624;BME280;6377;42.836;23.998;2023-12-14T02:20:22;94490.25;;;11.04;80.65
12624;BME280;6377;42.836;23.998;2023-12-14T02:22:51;94489.44;;;11.04;80.03
12624;BME280;6377;42.836;23.998;2023-12-14T02:25:19;94495.34;;;11.06;79.84
12624;BME280;6377;42.836;23.998;2023-12-14T02:27:46;94496.59;;;11.03;80.18
12624;BME280;6377;42.836;23.998;2023-12-14T02:30:15;94485.59;;;11.00;80.99
12624;BME280;6377;42.836;23.998;2023-12-14T02:32:42;94494.38;;;10.94;80.86
12624;BME280;6377;42.836;23.998;2023-12-14T02:35:09;94471.22;;;10.83;81.73
12624;BME280;6377;42.836;23.998;2023-12-14T02:37:37;94482.22;;;10.80;81.35
12624;BME280;6377;42.836;23.998;2023-12-14T02:40:08;94468.34;;;10.84;80.83
12624;BME280;6377;42.836;23.998;2023-12-14T02:42:36;94462.25;;;10.84;79.97
12624;BME280;6377;42.836;23.998;2023-12-14T02:45:04;94461.44;;;10.83;80.15
12624;BME280;6377;42.836;23.998;2023-12-14T02:47:31;94476.31;;;10.78;80.69
12624;BME280;6377;42.836;23.998;2023-12-14T02:49:58;94449.75;;;10.59;80.98
12624;BME280;6377;42.836;23.998;2023-12-14T02:52:25;94458.59;;;10.78;77.74
12624;BME280;6377;42.836;23.998;2023-12-14T02:54:52;94476.09;;;10.86;75.25
12624;BME280;6377;42.836;23.998;2023-12-14T02:57:21;94477.34;;;10.77;73.49
12624;BME280;6377;42.836;23.998;2023-12-14T02:59:48;94469.44;;;11.21;71.18
12624;BME280;6377;42.836;23.998;2023-12-14T03:02:15;94464.75;;;11.54;62.75
12624;BME280;6377;42.836;23.998;2023-12-14T03:04:42;94451.53;;;12.10;58.57
12624;BME280;6377;42.836;23.998;2023-12-14T03:07:09;94412.75;;;12.16;56.15
12624;BME280;6377;42.836;23.998;2023-12-14T03:09:39;94411.44;;;13.16;51.69
12624;BME280;6377;42.836;23.998;2023-12-14T03:12:09;94453.84;;;13.52;53.58
12624;BME280;6377;42.836;23.998;2023-12-14T03:14:38;94449.09;;;13.54;53.54
12624;BME280;6377;42.836;23.998;2023-12-14T03:17:06;94468.22;;;13.44;53.07
12624;BME280;6377;42.836;23.998;2023-12-14T03:19:38;94435.78;;;13.42;51.49
12624;BME280;6377;42.836;23.998;2023-12-14T03:22:06;94448.09;;;14.20;48.57
12624;BME280;6377;42.836;23.998;2023-12-14T03:24:33;94469.88;;;14.63;47.90
12624;BME280;6377;42.836;23.998;2023-12-14T03:27:01;94487.09;;;14.84;47.26
12624;BME280;6377;42.836;23.998;2023-12-14T03:29:28;94462.56;;;15.33;45.36
12624;BME280;6377;42.836;23.998;2023-12-14T03:31:57;94450.91;;;15.62;44.67
12624;BME280;6377;42.836;23.998;2023-12-14T03:34:24;94468.03;;;15.66;44.63
12624;BME280;6377;42.836;23.998;2023-12-14T03:36:51;94452.19;;;15.60;44.05
12624;BME280;6377;42.836;23.998;2023-12-14T03:39:18;94474.69;;;15.81;44.43
12624;BME280;6377;42.836;23.998;2023-12-14T03:41:45;94461.91;;;15.83;43.72
12624;BME280;6377;42.836;23.998;2023-12-14T03:44:13;94460.63;;;15.85;43.96
12624;BME280;6377;42.836;23.998;2023-12-14T03:46:40;94475.25;;;15.83;43.98
12624;BME280;6377;42.836;23.998;2023-12-14T03:49:08;94468.31;;;15.82;44.18
12624;BME280;6377;42.836;23.998;2023-12-14T03:51:35;94475.31;;;15.71;44.24
12624;BME280;6377;42.836;23.998;2023-12-14T03:54:04;94474.84;;;15.74;43.92
12624;BME280;6377;42.836;23.998;2023-12-14T03:56:31;94474.84;;;15.74;44.76
12624;BME280;6377;42.836;23.998;2023-12-14T03:58:59;94479.50;;;15.67;44.39
12624;BME280;6377;42.836;23.998;2023-12-14T04:01:26;94461.09;;;15.65;44.69
12624;BME280;6377;42.836;23.998;2023-12-14T04:03:53;94466.41;;;15.65;44.00
12624;BME280;6377;42.836;23.998;2023-12-14T04:06:21;94474.59;;;15.47;44.90
12624;BME280;6377;42.836;23.998;2023-12-14T04:08:49;94479.91;;;15.47;44.28
12624;BME280;6377;42.836;23.998;2023-12-14T04:11:16;94464.09;;;15.69;44.10
12624;BME280;6377;42.836;23.998;2023-12-14T04:13:43;94479.59;;;15.72;43.97
12624;BME280;6377;42.836;23.998;2023-12-14T04:16:10;94488.28;;;15.79;43.23
12624;BME280;6377;42.836;23.998;2023-12-14T04:18:37;94497.06;;;15.80;43.67
12624;BME280;6377;42.836;23.998;2023-12-14T04:21:05;94484.53;;;15.80;44.05
12624;BME280;6377;42.836;23.998;2023-12-14T04:23:34;94448.31;;;15.39;44.11
12624;BME280;6377;42.836;23.998;2023-12-14T04:26:01;94447.59;;;15.44;44.07
12624;BME280;6377;42.836;23.998;2023-12-14T04:28:28;94473.66;;;15.42;43.99
12624;BME280;6377;42.836;23.998;2023-12-14T04:30:55;94491.38;;;15.48;44.43
12624;BME280;6377;42.836;23.998;2023-12-14T04:33:23;94502.41;;;15.40;44.69
12624;BME280;6377;42.836;23.998;2023-12-14T04:35:50;94499.47;;;15.41;44.77
12624;BME280;6377;42.836;23.998;2023-12-14T04:38:17;94511.13;;;15.12;45.54
12624;BME280;6377;42.836;23.998;2023-12-14T04:40:45;94521.28;;;15.27;45.77
12624;BME280;6377;42.836;23.998;2023-12-14T04:43:13;94506.59;;;15.24;46.12
12624;BME280;6377;42.836;23.998;2023-12-14T04:45:40;94513.94;;;15.05;46.03
12624;BME280;6377;42.836;23.998;2023-12-14T04:48:08;94507.44;;;15.01;45.80
12624;BME280;6377;42.836;23.998;2023-12-14T04:50:35;94511.75;;;14.91;45.79
12624;BME280;6377;42.836;23.998;2023-12-14T04:53:02;94516.50;;;14.89;46.16
12624;BME280;6377;42.836;23.998;2023-12-14T04:55:30;94446.97;;;14.39;46.61
12624;BME280;6377;42.836;23.998;2023-12-14T04:57:58;94509.88;;;14.80;46.26
12624;BME280;6377;42.836;23.998;2023-12-14T05:00:25;94514.06;;;14.76;46.78
12624;BME280;6377;42.836;23.998;2023-12-14T05:02:53;94517.88;;;14.80;46.49
12624;BME280;6377;42.836;23.998;2023-12-14T05:05:20;94519.75;;;14.79;46.97
12624;BME280;6377;42.836;23.998;2023-12-14T05:07:47;94519.25;;;14.71;47.26
12624;BME280;6377;42.836;23.998;2023-12-14T05:10:14;94516.84;;;14.69;48.35
12624;BME280;6377;42.836;23.998;2023-12-14T05:12:41;94514.53;;;14.49;48.82
12624;BME280;6377;42.836;23.998;2023-12-14T05:15:11;94521.69;;;14.37;48.82
12624;BME280;6377;42.836;23.998;2023-12-14T05:17:38;94510.75;;;14.16;49.12
12624;BME280;6377;42.836;23.998;2023-12-14T05:20:08;94524.09;;;13.97;49.52
12624;BME280;6377;42.836;23.998;2023-12-14T05:22:35;94505.97;;;14.06;48.16
12624;BME280;6377;42.836;23.998;2023-12-14T05:25:03;94518.63;;;14.22;47.85
12624;BME280;6377;42.836;23.998;2023-12-14T05:27:30;94512.84;;;14.25;48.26
12624;BME280;6377;42.836;23.998;2023-12-14T05:29:57;94521.75;;;14.31;48.83
12624;BME280;6377;42.836;23.998;2023-12-14T05:32:25;94469.34;;;14.08;48.99
12624;BME280;6377;42.836;23.998;2023-12-14T05:34:53;94515.47;;;14.14;49.09
12624;BME280;6377;42.836;23.998;2023-12-14T05:37:20;94513.72;;;14.08;49.38
12624;BME280;6377;42.836;23.998;2023-12-14T05:39:47;94514.38;;;13.91;50.62
12624;BME280;6377;42.836;23.998;2023-12-14T05:42:16;94509.38;;;13.83;51.03
12624;BME280;6377;42.836;23.998;2023-12-14T05:44:43;94537.19;;;13.69;51.74
12624;BME280;6377;42.836;23.998;2023-12-14T05:47:11;94544.72;;;13.54;52.02
12624;BME280;6377;42.836;23.998;2023-12-14T05:49:42;94554.19;;;13.32;53.26
12624;BME280;6377;42.836;23.998;2023-12-14T05:52:09;94536.56;;;13.19;54.10
12624;BME280;6377;42.836;23.998;2023-12-14T05:54:36;94545.09;;;13.03;54.80
12624;BME280;6377;42.836;23.998;2023-12-14T05:57:03;94538.47;;;12.94;54.76
12624;BME280;6377;42.836;23.998;2023-12-14T05:59:31;94535.88;;;12.87;55.25
12624;BME280;6377;42.836;23.998;2023-12-14T06:01:58;94554.03;;;12.66;56.57
12624;BME280;6377;42.836;23.998;2023-12-14T06:04:27;94525.81;;;12.53;57.33
12624;BME280;6377;42.836;23.998;2023-12-14T06:06:57;94551.56;;;12.71;57.49
12624;BME280;6377;42.836;23.998;2023-12-14T06:09:24;94561.59;;;12.62;58.59
12624;BME280;6377;42.836;23.998;2023-12-14T06:11:59;94565.16;;;12.56;59.08
12624;BME280;6377;42.836;23.998;2023-12-14T06:14:26;94572.38;;;12.43;59.86
12624;BME280;6377;42.836;23.998;2023-12-14T06:16:53;94571.88;;;12.27;60.58
12624;BME280;6377;42.836;23.998;2023-12-14T06:19:20;94572.50;;;12.29;60.76
12624;BME280;6377;42.836;23.998;2023-12-14T06:21:47;94581.03;;;12.31;61.53
12624;BME280;6377;42.836;23.998;2023-12-14T06:24:16;94586.50;;;12.36;62.23
12624;BME280;6377;42.836;23.998;2023-12-14T06:26:43;94584.34;;;12.27;62.57
12624;BME280;6377;42.836;23.998;2023-12-14T06:29:11;94592.50;;;12.25;63.11
12624;BME280;6377;42.836;23.998;2023-12-14T06:31:38;94596.28;;;12.11;64.75
12624;BME280;6377;42.836;23.998;2023-12-14T06:34:05;94604.81;;;12.13;65.41
12624;BME280;6377;42.836;23.998;2023-12-14T06:36:33;94608.53;;;12.06;66.22
12624;BME280;6377;42.836;23.998;2023-12-14T06:39:01;94577.47;;;11.88;66.91
12624;BME280;6377;42.836;23.998;2023-12-14T06:41:30;94613.44;;;12.02;68.18
12624;BME280;6377;42.836;23.998;2023-12-14T06:43:57;94617.66;;;12.10;67.62
12624;BME280;6377;42.836;23.998;2023-12-14T06:46:24;94620.75;;;12.07;67.20
12624;BME280;6377;42.836;23.998;2023-12-14T06:48:51;94639.94;;;12.02;67.62
12624;BME280;6377;42.836;23.998;2023-12-14T06:51:19;94627.53;;;11.96;69.20
12624;BME280;6377;42.836;23.998;2023-12-14T06:53:46;94630.19;;;11.96;69.52
12624;BME280;6377;42.836;23.998;2023-12-14T06:56:14;94634.66;;;12.02;69.40
12624;BME280;6377;42.836;23.998;2023-12-14T06:58:44;94640.78;;;11.96;69.56
12624;BME280;6377;42.836;23.998;2023-12-14T07:01:12;94652.25;;;11.90;69.46
12624;BME280;6377;42.836;23.998;2023-12-14T07:03:40;94637.75;;;11.93;68.55
12624;BME280;6377;42.836;23.998;2023-12-14T07:06:07;94654.91;;;11.84;69.60
12624;BME280;6377;42.836;23.998;2023-12-14T07:08:38;94661.03;;;11.77;69.61
12624;BME280;6377;42.836;23.998;2023-12-14T07:11:06;94651.00;;;11.93;70.04
12624;BME280;6377;42.836;23.998;2023-12-14T07:13:33;94650.81;;;11.94;68.75
12624;BME280;6377;42.836;23.998;2023-12-14T07:16:05;94657.53;;;11.90;68.75
12624;BME280;6377;42.836;23.998;2023-12-14T07:18:33;94669.94;;;11.96;69.17
12624;BME280;6377;42.836;23.998;2023-12-14T07:21:01;94664.19;;;12.06;69.63
12624;BME280;6377;42.836;23.998;2023-12-14T07:23:28;94657.81;;;12.13;67.72
12624;BME280;6377;42.836;23.998;2023-12-14T07:25:55;94668.22;;;12.15;68.21
12624;BME280;6377;42.836;23.998;2023-12-14T07:28:23;94667.47;;;12.01;68.27
12624;BME280;6377;42.836;23.998;2023-12-14T07:30:50;94662.38;;;12.06;66.80
12624;BME280;6377;42.836;23.998;2023-12-14T07:33:18;94698.16;;;12.15;66.66
12624;BME280;6377;42.836;23.998;2023-12-14T07:35:45;94692.09;;;12.08;65.66
12624;BME280;6377;42.836;23.998;2023-12-14T07:38:13;94702.91;;;12.07;64.53
12624;BME280;6377;42.836;23.998;2023-12-14T07:40:40;94718.97;;;12.18;64.90
12624;BME280;6377;42.836;23.998;2023-12-14T07:43:08;94726.31;;;12.16;65.25
12624;BME280;6377;42.836;23.998;2023-12-14T07:45:35;94698.53;;;11.81;65.56
12624;BME280;6377;42.836;23.998;2023-12-14T07:48:02;94751.19;;;12.15;66.62
12624;BME280;6377;42.836;23.998;2023-12-14T07:50:32;94765.91;;;12.11;67.56
12624;BME280;6377;42.836;23.998;2023-12-14T07:52:59;94729.91;;;11.84;68.57
12624;BME280;6377;42.836;23.998;2023-12-14T07:55:26;94765.31;;;12.03;70.10
12624;BME280;6377;42.836;23.998;2023-12-14T07:57:53;94773.94;;;11.92;70.69
12624;BME280;6377;42.836;23.998;2023-12-14T08:00:20;94769.81;;;11.89;72.24
12624;BME280;6377;42.836;23.998;2023-12-14T08:02:48;94807.75;;;11.90;72.43
12624;BME280;6377;42.836;23.998;2023-12-14T08:05:15;94811.03;;;11.92;72.62
12624;BME280;6377;42.836;23.998;2023-12-14T08:07:43;94808.16;;;11.87;73.93
12624;BME280;6377;42.836;23.998;2023-12-14T08:10:10;94826.72;;;11.73;75.31
12624;BME280;6377;42.836;23.998;2023-12-14T08:12:38;94841.00;;;11.72;76.88
12624;BME280;6377;42.836;23.998;2023-12-14T08:15:05;94836.09;;;11.76;78.71
12624;BME280;6377;42.836;23.998;2023-12-14T08:17:33;94795.78;;;11.41;81.18
12624;BME280;6377;42.836;23.998;2023-12-14T08:20:00;94830.78;;;11.56;84.43
12624;BME280;6377;42.836;23.998;2023-12-14T08:22:30;94839.16;;;11.53;86.45
12624;BME280;6377;42.836;23.998;2023-12-14T08:24:58;94829.97;;;11.43;87.73
12624;BME280;6377;42.836;23.998;2023-12-14T08:27:25;94847.69;;;11.49;87.86
12624;BME280;6377;42.836;23.998;2023-12-14T08:29:52;94842.00;;;11.65;86.66
12624;BME280;6377;42.836;23.998;2023-12-14T08:32:20;94847.28;;;11.78;85.84
12624;BME280;6377;42.836;23.998;2023-12-14T08:34:47;94859.50;;;11.99;82.68
12624;BME280;6377;42.836;23.998;2023-12-14T08:37:14;94857.44;;;12.14;80.78
12624;BME280;6377;42.836;23.998;2023-12-14T08:39:41;94870.44;;;12.28;79.50
12624;BME280;6377;42.836;23.998;2023-12-14T08:42:09;94870.22;;;12.36;79.22
12624;BME280;6377;42.836;23.998;2023-12-14T08:44:38;94879.56;;;12.46;78.81
12624;BME280;6377;42.836;23.998;2023-12-14T08:47:05;94870.78;;;12.52;78.40
12624;BME280;6377;42.836;23.998;2023-12-14T08:49:34;94870.97;;;12.57;77.33
12624;BME280;6377;42.836;23.998;2023-12-14T08:52:02;94875.66;;;12.61;77.79
12624;BME280;6377;42.836;23.998;2023-12-14T08:54:29;94878.66;;;12.71;77.16
12624;BME280;6377;42.836;23.998;2023-12-14T08:56:56;94859.75;;;12.61;76.65
12624;BME280;6377;42.836;23.998;2023-12-14T08:59:25;94885.59;;;12.72;76.47
12624;BME280;6377;42.836;23.998;2023-12-14T09:01:52;94884.16;;;12.76;76.38
12624;BME280;6377;42.836;23.998;2023-12-14T09:04:19;94884.97;;;12.77;77.29
12624;BME280;6377;42.836;23.998;2023-12-14T09:06:46;94887.59;;;12.83;76.05
12624;BME280;6377;42.836;23.998;2023-12-14T09:09:14;94890.38;;;13.02;74.94
12624;BME280;6377;42.836;23.998;2023-12-14T09:11:41;94887.47;;;13.16;73.53
12624;BME280;6377;42.836;23.998;2023-12-14T09:14:08;94878.09;;;13.14;72.71
12624;BME280;6377;42.836;23.998;2023-12-14T09:16:36;94886.91;;;13.39;71.86
12624;BME280;6377;42.836;23.998;2023-12-14T09:19:03;94891.56;;;13.50;71.88
12624;BME280;6377;42.836;23.998;2023-12-14T09:21:31;94884.28;;;13.64;71.41
12624;BME280;6377;42.836;23.998;2023-12-14T09:23:58;94884.88;;;13.90;68.88
12624;BME280;6377;42.836;23.998;2023-12-14T09:26:25;94878.81;;;14.08;67.84
12624;BME280;6377;42.836;23.998;2023-12-14T09:28:52;94873.88;;;14.30;67.15
12624;BME280;6377;42.836;23.998;2023-12-14T09:31:19;94868.06;;;14.39;66.42
12624;BME280;6377;42.836;23.998;2023-12-14T09:33:48;94870.16;;;14.55;64.64
12624;BME280;6377;42.836;23.998;2023-12-14T09:36:15;94855.97;;;14.43;65.17
12624;BME280;6377;42.836;23.998;2023-12-14T09:38:42;94849.53;;;14.51;65.02
12624;BME280;6377;42.836;23.998;2023-12-14T09:41:09;94850.03;;;14.59;64.38
12624;BME280;6377;42.836;23.998;2023-12-14T09:43:37;94842.50;;;14.56;64.08
12624;BME280;6377;42.836;23.998;2023-12-14T09:46:04;94848.34;;;14.47;64.65
12624;BME280;6377;42.836;23.998;2023-12-14T09:48:33;94854.41;;;14.36;64.50
12624;BME280;6377;42.836;23.998;2023-12-14T09:51:01;94865.16;;;14.23;65.48
12624;BME280;6377;42.836;23.998;2023-12-14T09:53:28;94841.78;;;14.07;66.26
12624;BME280;6377;42.836;23.998;2023-12-14T09:55:55;94848.75;;;13.83;68.46
12624;BME280;6377;42.836;23.998;2023-12-14T09:58:22;94859.56;;;13.63;69.00
12624;BME280;6377;42.836;23.998;2023-12-14T10:00:50;94849.69;;;13.70;72.31
12624;BME280;6377;42.836;23.998;2023-12-14T10:03:21;94865.22;;;13.73;70.67
12624;BME280;6377;42.836;23.998;2023-12-14T10:05:49;94835.34;;;13.53;71.33
12624;BME280;6377;42.836;23.998;2023-12-14T10:08:19;94859.56;;;13.63;71.92
12624;BME280;6377;42.836;23.998;2023-12-14T10:10:47;94858.34;;;13.84;72.31
12624;BME280;6377;42.836;23.998;2023-12-14T10:13:16;94874.75;;;14.06;70.08
12624;BME280;6377;42.836;23.998;2023-12-14T10:15:45;94848.69;;;14.14;68.07
12624;BME280;6377;42.836;23.998;2023-12-14T10:18:12;94861.66;;;14.47;65.56
12624;BME280;6377;42.836;23.998;2023-12-14T10:20:40;94868.91;;;14.58;64.65
12624;BME280;6377;42.836;23.998;2023-12-14T10:23:07;94857.75;;;14.68;64.62
12624;BME280;6377;42.836;23.998;2023-12-14T10:25:36;94858.19;;;14.94;63.64
12624;BME280;6377;42.836;23.998;2023-12-14T10:28:04;94866.34;;;14.99;62.37
12624;BME280;6377;42.836;23.998;2023-12-14T10:30:31;94860.34;;;15.04;62.45
12624;BME280;6377;42.836;23.998;2023-12-14T10:32:58;94862.41;;;15.02;62.34
12624;BME280;6377;42.836;23.998;2023-12-14T10:35:25;94868.22;;;14.81;63.04
12624;BME280;6377;42.836;23.998;2023-12-14T10:37:53;94871.50;;;14.65;63.52
12624;BME280;6377;42.836;23.998;2023-12-14T10:40:23;94868.22;;;14.44;64.54
12624;BME280;6377;42.836;23.998;2023-12-14T10:42:54;94874.28;;;14.33;64.71
12624;BME280;6377;42.836;23.998;2023-12-14T10:45:26;94877.34;;;14.30;65.20
12624;BME280;6377;42.836;23.998;2023-12-14T10:47:58;94856.59;;;14.21;66.95
12624;BME280;6377;42.836;23.998;2023-12-14T10:50:26;94850.22;;;14.22;66.30
12624;BME280;6377;42.836;23.998;2023-12-14T10:52:55;94862.38;;;14.36;66.02
12624;BME280;6377;42.836;23.998;2023-12-14T10:55:37;94858.72;;;14.30;65.93
12624;BME280;6377;42.836;23.998;2023-12-14T10:58:08;94858.13;;;14.10;66.05
12624;BME280;6377;42.836;23.998;2023-12-14T11:00:36;94865.13;;;14.04;66.30
12624;BME280;6377;42.836;23.998;2023-12-14T11:03:04;94875.31;;;13.83;67.61
12624;BME280;6377;42.836;23.998;2023-12-14T11:05:32;94876.78;;;13.54;70.86
12624;BME280;6377;42.836;23.998;2023-12-14T11:08:03;94871.16;;;13.06;73.83
12624;BME280;6377;42.836;23.998;2023-12-14T11:10:40;94876.97;;;12.83;76.83
12624;BME280;6377;42.836;23.998;2023-12-14T11:13:10;94897.09;;;12.53;80.28
12624;BME280;6377;42.836;23.998;2023-12-14T11:15:45;94893.44;;;12.48;80.80
12624;BME280;6377;42.836;23.998;2023-12-14T11:18:25;94904.91;;;12.28;82.70
12624;BME280;6377;42.836;23.998;2023-12-14T11:20:58;94910.25;;;12.09;83.17
12624;BME280;6377;42.836;23.998;2023-12-14T11:23:31;94928.41;;;11.99;84.58
12624;BME280;6377;42.836;23.998;2023-12-14T11:26:01;94927.19;;;11.95;84.95
12624;BME280;6377;42.836;23.998;2023-12-14T11:28:32;94935.75;;;12.03;85.48
12624;BME280;6377;42.836;23.998;2023-12-14T11:31:01;94942.06;;;11.96;86.38
12624;BME280;6377;42.836;23.998;2023-12-14T11:33:32;94916.97;;;11.59;87.03
12624;BME280;6377;42.836;23.998;2023-12-14T11:36:02;94944.28;;;11.92;88.34
12624;BME280;6377;42.836;23.998;2023-12-14T11:38:30;94936.94;;;11.68;89.52
12624;BME280;6377;42.836;23.998;2023-12-14T11:40:58;94918.00;;;11.77;88.45
12624;BME280;6377;42.836;23.998;2023-12-14T11:43:25;94920.25;;;11.94;87.18
12624;BME280;6377;42.836;23.998;2023-12-14T11:45:54;94950.44;;;12.06;86.95
12624;BME280;6377;42.836;23.998;2023-12-14T11:48:21;94960.19;;;11.99;89.08
12624;BME280;6377;42.836;23.998;2023-12-14T11:50:48;94952.06;;;12.00;88.13
12624;BME280;6377;42.836;23.998;2023-12-14T11:53:15;94952.84;;;12.07;87.86
12624;BME280;6377;42.836;23.998;2023-12-14T11:55:43;94936.75;;;12.09;86.98
12624;BME280;6377;42.836;23.998;2023-12-14T11:58:12;94944.69;;;12.28;85.30
12624;BME280;6377;42.836;23.998;2023-12-14T12:00:40;94848.31;;;11.90;84.38
12624;BME280;6377;42.836;23.998;2023-12-14T12:03:10;94925.72;;;12.38;84.41
12624;BME280;6377;42.836;23.998;2023-12-14T12:05:38;94935.88;;;12.48;83.94
12624;BME280;6377;42.836;23.998;2023-12-14T12:08:06;94934.25;;;12.40;84.61
12624;BME280;6377;42.836;23.998;2023-12-14T12:10:34;94936.69;;;12.48;83.95
12624;BME280;6377;42.836;23.998;2023-12-14T12:13:02;94932.63;;;12.46;82.37
12624;BME280;6377;42.836;23.998;2023-12-14T12:15:31;94935.25;;;12.46;82.65
12624;BME280;6377;42.836;23.998;2023-12-14T12:18:02;94932.22;;;12.42;83.67
12624;BME280;6377;42.836;23.998;2023-12-14T12:20:31;94935.09;;;12.34;82.97
12624;BME280;6377;42.836;23.998;2023-12-14T12:22:58;94933.25;;;12.34;83.59
12624;BME280;6377;42.836;23.998;2023-12-14T12:25:26;94926.72;;;12.37;83.04
12624;BME280;6377;42.836;23.998;2023-12-14T12:27:54;94865.81;;;12.04;83.10
12624;BME280;6377;42.836;23.998;2023-12-14T12:30:22;94925.91;;;12.30;82.49
12624;BME280;6377;42.836;23.998;2023-12-14T12:32:50;94923.69;;;12.14;82.25
12624;BME280;6377;42.836;23.998;2023-12-14T12:35:17;94921.88;;;12.08;82.19
12624;BME280;6377;42.836;23.998;2023-12-14T12:37:46;94948.97;;;12.23;83.92
12624;BME280;6377;42.836;23.998;2023-12-14T12:40:19;94829.56;;;11.52;82.87
12624;BME280;6377;42.836;23.998;2023-12-14T12:42:46;94844.41;;;11.60;82.27
12624;BME280;6377;42.836;23.998;2023-12-14T12:45:15;94871.53;;;11.62;82.48
12624;BME280;6377;42.836;23.998;2023-12-14T12:47:43;94909.66;;;11.74;83.13
12624;BME280;6377;42.836;23.998;2023-12-14T12:50:10;94856.44;;;11.36;81.99
12624;BME280;6377;42.836;23.998;2023-12-14T12:52:38;94912.91;;;11.76;81.26
12624;BME280;6377;42.836;23.998;2023-12-14T12:55:07;94914.13;;;11.80;81.62
12624;BME280;6377;42.836;23.998;2023-12-14T12:57:35;94952.25;;;12.12;81.41
12624;BME280;6377;42.836;23.998;2023-12-14T13:00:02;94848.91;;;11.40;80.06
12624;BME280;6377;42.836;23.998;2023-12-14T13:02:33;94825.50;;;11.30;80.37
12624;BME280;6377;42.836;23.998;2023-12-14T13:05:01;94947.34;;;12.22;80.75